Time;durP1;ratioP1;P1;durP2;ratioP2;P2;SDS_P1;SDS_P2;PMS_P1;PMS_P2;Temp;Humidity;BMP_temperature;BMP_pressure;BME280_temperature;BME280_humidity;BME280_pressure;Samples;Min_cycle;Max_cycle;Signal;HPM_P1;HPM_P2
2021/04/15 00:01:19;;;;;;;5.70;3.60;;;1.80;65.10;;;2.46;53.69;98514.56;4913170;29;20052;-41
2021/04/15 00:03:48;;;;;;;5.88;3.60;;;1.80;64.80;;;2.45;53.15;98514.66;4913087;29;20055;-42
2021/04/15 00:06:24;;;;;;;5.87;3.83;;;1.80;64.50;;;2.45;52.81;98512.88;4928289;29;20059;-41
2021/04/15 00:08:53;;;;;;;6.30;3.80;;;1.70;64.80;;;2.41;52.89;98516.63;4928215;29;20056;-42
2021/04/15 00:11:28;;;;;;;6.90;3.90;;;1.70;64.90;;;2.40;52.90;98511.44;4928558;29;20074;-42
2021/04/15 00:13:58;;;;;;;4.63;3.60;;;1.60;65.30;;;2.35;53.15;98506.47;4928480;29;20058;-41
2021/04/15 00:16:28;;;;;;;4.27;3.17;;;1.60;65.10;;;2.32;52.85;98507.47;4928485;29;20054;-42
2021/04/15 00:18:57;;;;;;;5.53;3.80;;;1.60;65.30;;;2.29;53.64;98501.56;4927993;29;20364;-41
2021/04/15 00:21:25;;;;;;;6.27;4.13;;;1.50;65.60;;;2.24;53.59;98499.19;4928033;29;20052;-42
2021/04/15 00:23:54;;;;;;;4.37;3.50;;;1.50;65.60;;;2.21;53.33;98502.00;4928389;29;20110;-41
2021/04/15 00:26:25;;;;;;;4.93;3.87;;;1.50;65.60;;;2.18;53.39;98496.91;4927653;29;20059;-41
2021/04/15 00:28:54;;;;;;;5.13;3.80;;;1.40;65.80;;;2.18;53.25;98496.91;4927775;29;20052;-41
2021/04/15 00:31:24;;;;;;;6.87;4.10;;;1.50;65.50;;;2.20;53.38;98491.56;4928172;29;20067;-42
2021/04/15 00:33:52;;;;;;;5.00;3.07;;;1.50;65.60;;;2.19;53.30;98490.72;4928181;29;20044;-41
2021/04/15 00:36:20;;;;;;;6.63;3.40;;;1.50;65.10;;;2.13;53.79;98491.94;4911516;29;20052;-41
2021/04/15 00:38:49;;;;;;;7.20;3.73;;;1.40;65.40;;;2.13;52.94;98488.44;4910551;29;20054;-41
2021/04/15 00:41:16;;;;;;;5.30;3.87;;;1.40;64.80;;;2.16;52.98;98483.03;4927465;29;20056;-45
2021/04/15 00:43:46;;;;;;;4.73;3.57;;;1.40;65.00;;;2.18;52.84;98483.78;4925472;29;20073;-41
2021/04/15 00:47:07;;;;;;;5.23;3.80;;;1.50;64.80;;;2.18;53.23;98486.41;4927534;29;20059;-41
2021/04/15 00:50:05;;;;;;;4.70;3.00;;;1.50;65.50;;;2.14;52.83;98477.00;4916826;29;20068;-42
2021/04/15 00:52:46;;;;;;;5.47;3.10;;;1.40;65.80;;;2.12;53.20;98476.25;4908889;29;20082;-41
2021/04/15 00:55:20;;;;;;;4.90;3.20;;;1.40;65.40;;;2.10;53.25;98478.97;4927785;29;20354;-41
2021/04/15 00:57:49;;;;;;;5.63;3.67;;;1.40;65.10;;;2.10;52.73;98476.31;4911000;29;20056;-41
2021/04/15 01:00:26;;;;;;;5.63;3.60;;;1.40;64.60;;;2.11;52.59;98477.16;4911138;29;20056;-41
2021/04/15 01:02:55;;;;;;;4.53;3.10;;;1.40;64.60;;;2.02;54.16;98475.09;4927806;29;20052;-41
2021/04/15 01:05:28;;;;;;;6.70;3.10;;;1.30;65.40;;;1.94;53.87;98479.00;4927343;29;20106;-42
2021/04/15 01:07:56;;;;;;;4.30;3.17;;;1.20;65.80;;;1.95;53.52;98482.44;4926950;29;20241;-41
2021/04/15 01:10:27;;;;;;;4.60;3.00;;;1.20;65.60;;;1.91;54.01;98473.91;4926327;29;20059;-41
2021/04/15 01:14:04;;;;;;;6.77;2.87;;;1.20;66.40;;;1.88;54.16;98476.72;4926272;29;20048;-42
2021/04/15 01:17:07;;;;;;;3.80;2.83;;;1.20;67.10;;;1.83;54.41;98476.13;4887661;29;20053;-41
2021/04/15 01:20:27;;;;;;;5.30;2.90;;;1.10;66.90;;;1.80;54.87;98473.66;4882640;29;20096;-41
2021/04/15 01:23:19;;;;;;;5.67;3.00;;;1.10;67.10;;;1.76;55.20;98478.25;4927446;29;20056;-41
2021/04/15 01:26:28;;;;;;;5.80;3.03;;;1.10;67.00;;;1.76;55.16;98478.25;4927148;29;20056;-41
2021/04/15 01:29:14;;;;;;;4.80;2.70;;;1.10;67.20;;;1.73;53.91;98473.16;4912814;29;20054;-42
2021/04/15 01:32:06;;;;;;;4.93;2.73;;;1.10;66.80;;;1.76;54.08;98473.00;4935881;29;20056;-42
2021/04/15 01:34:55;;;;;;;4.43;3.30;;;1.10;66.40;;;1.79;53.87;98473.75;4946050;29;20047;-41
2021/04/15 01:37:26;;;;;;;4.53;2.50;;;1.20;66.40;;;1.81;54.11;98466.63;4945534;29;20353;-42
2021/04/15 01:40:10;;;;;;;5.43;3.97;;;1.20;66.00;;;1.77;54.72;98469.44;4945583;29;20047;-42
2021/04/15 01:43:29;;;;;;;4.50;2.80;;;1.20;66.60;;;1.70;54.72;98468.06;4945805;29;20058;-42
2021/04/15 01:45:59;;;;;;;6.83;3.20;;;1.00;66.60;;;1.68;54.40;98471.72;4945852;29;20044;-42
2021/04/15 01:48:37;;;;;;;5.73;3.37;;;1.00;66.80;;;1.69;54.41;98469.00;4945293;29;20052;-41
2021/04/15 01:51:35;;;;;;;4.00;3.00;;;1.00;66.80;;;1.72;54.26;98473.25;4929611;29;20250;-42
2021/04/15 01:54:46;;;;;;;4.90;3.43;;;1.00;67.00;;;1.73;53.93;98474.94;4924515;29;20062;-41
2021/04/15 01:57:30;;;;;;;5.73;3.33;;;1.10;67.70;;;1.73;53.86;98480.19;4875303;29;20053;-41
2021/04/15 02:00:15;;;;;;;4.47;2.75;;;1.00;66.80;;;1.66;54.65;98474.41;4926429;29;20249;-43
2021/04/15 02:02:51;;;;;;;4.53;3.27;;;1.00;66.90;;;1.61;54.22;98463.34;4929519;29;20052;-41
2021/04/15 02:05:43;;;;;;;7.63;3.00;;;0.90;67.00;;;1.55;54.95;98472.41;4929609;29;20074;-42
2021/04/15 02:08:24;;;;;;;5.40;2.97;;;0.80;67.30;;;1.50;54.77;98479.69;4931116;29;20053;-41
2021/04/15 02:11:39;;;;;;;5.57;3.80;;;0.80;67.70;;;1.53;54.60;98469.03;4929066;29;20211;-41
2021/04/15 02:14:10;;;;;;;6.77;4.00;;;0.80;68.40;;;1.57;54.31;98478.41;4931918;29;20349;-41
2021/04/15 02:16:42;;;;;;;5.70;3.40;;;0.90;67.70;;;1.52;55.01;98477.81;4928930;29;20284;-41
2021/04/15 02:20:04;;;;;;;7.37;3.20;;;0.90;67.30;;;1.51;54.64;98476.13;4928558;29;20043;-41
2021/04/15 02:22:40;;;;;;;4.67;3.20;;;0.80;67.70;;;1.49;54.50;98478.00;4905036;29;20052;-41
2021/04/15 02:25:49;;;;;;;4.77;3.40;;;0.80;67.60;;;1.49;55.05;98470.13;4945380;29;20054;-42
2021/04/15 02:28:42;;;;;;;5.33;3.40;;;0.80;67.90;;;1.47;54.74;98474.59;4944181;29;20058;-43
2021/04/15 02:31:25;;;;;;;5.30;3.30;;;0.80;68.20;;;1.45;54.87;98486.94;4928756;29;20070;-41
2021/04/15 02:34:08;;;;;;;5.03;3.50;;;0.80;68.70;;;1.44;54.85;98482.66;4928641;29;20054;-41
2021/04/15 02:36:59;;;;;;;5.37;3.43;;;0.70;67.80;;;1.42;55.04;98481.88;4928399;29;20053;-41
2021/04/15 02:39:34;;;;;;;4.03;3.40;;;0.70;68.30;;;1.43;54.96;98483.56;4928680;29;20052;-41
2021/04/15 02:42:10;;;;;;;5.60;3.43;;;0.70;67.50;;;1.38;55.13;98482.97;4945030;29;20054;-41
2021/04/15 02:44:48;;;;;;;5.53;3.40;;;0.70;67.80;;;1.34;55.26;98482.28;4928614;29;20061;-41
2021/04/15 02:47:30;;;;;;;7.73;4.00;;;0.60;68.20;;;1.32;55.26;98486.78;4928756;29;20052;-41
2021/04/15 02:50:00;;;;;;;5.10;3.60;;;0.60;67.70;;;1.33;54.74;98479.75;4928345;29;20056;-42
2021/04/15 02:52:35;;;;;;;4.23;3.03;;;0.60;67.90;;;1.32;55.34;98478.91;4912817;29;20249;-41
2021/04/15 02:55:11;;;;;;;6.23;3.83;;;0.60;67.90;;;1.28;54.97;98476.50;4912764;29;20063;-41
2021/04/15 02:58:06;;;;;;;4.37;3.80;;;0.50;68.20;;;1.27;55.54;98485.34;4928222;29;20044;-41
2021/04/15 03:00:41;;;;;;;6.03;3.60;;;0.50;68.00;;;1.27;54.83;98480.09;4944245;29;20129;-42
2021/04/15 03:03:21;;;;;;;8.40;4.10;;;0.60;67.90;;;1.26;54.53;98475.75;4928115;29;20067;-42
2021/04/15 03:06:05;;;;;;;5.07;3.43;;;0.50;67.90;;;1.25;55.13;98476.69;4928239;29;20059;-40
2021/04/15 03:08:33;;;;;;;4.80;2.97;;;0.60;68.80;;;1.24;55.45;98480.22;4929017;29;20272;-41
2021/04/15 03:11:52;;;;;;;5.87;3.70;;;0.50;68.10;;;1.23;54.88;98479.41;4944779;29;20055;-41
2021/04/15 03:14:32;;;;;;;4.93;3.43;;;0.50;68.20;;;1.20;55.29;98476.94;4929920;29;20050;-41
2021/04/15 03:17:04;;;;;;;9.23;3.97;;;0.50;68.00;;;1.17;54.79;98475.31;4928486;29;20054;-41
2021/04/15 03:19:47;;;;;;;4.93;3.27;;;0.40;68.10;;;1.17;55.33;98477.94;4944000;29;20052;-40
2021/04/15 03:22:23;;;;;;;8.17;4.73;;;0.40;68.40;;;1.12;55.68;98479.97;4928444;29;20408;-40
2021/04/15 03:24:55;;;;;;;6.17;3.93;;;0.40;68.10;;;1.11;55.24;98480.91;4927937;29;20055;-41
2021/04/15 03:27:48;;;;;;;5.80;4.00;;;0.40;68.60;;;1.08;56.02;98478.44;4927746;29;20061;-41
2021/04/15 03:30:40;;;;;;;7.10;3.83;;;0.40;68.90;;;1.08;56.41;98482.84;4944427;29;20253;-41
2021/04/15 03:33:39;;;;;;;7.43;3.77;;;0.40;69.10;;;1.07;55.97;98476.75;4947017;29;20044;-40
2021/04/15 03:36:27;;;;;;;6.30;4.10;;;0.40;68.80;;;1.07;55.91;98484.63;4932970;29;20070;-40
2021/04/15 03:39:06;;;;;;;8.60;4.23;;;0.30;68.40;;;1.07;55.85;98486.41;4931948;29;20262;-41
2021/04/15 03:41:44;;;;;;;5.30;3.90;;;0.30;68.60;;;1.05;54.98;98481.22;4948467;29;20224;-40
2021/04/15 03:44:15;;;;;;;6.97;3.90;;;0.40;68.30;;;1.04;55.34;98482.16;4930084;29;20062;-41
2021/04/15 03:47:10;;;;;;;6.50;4.27;;;0.30;68.10;;;1.06;55.46;98480.28;4947809;29;20049;-41
2021/04/15 03:49:50;;;;;;;8.30;4.20;;;0.40;67.70;;;1.05;55.04;98486.47;4941301;29;20086;-41
2021/04/15 03:52:25;;;;;;;7.63;4.53;;;0.40;67.80;;;1.05;55.17;98483.84;4931634;29;20350;-41
2021/04/15 03:55:22;;;;;;;8.73;4.50;;;0.40;67.80;;;1.06;54.93;98482.06;4931459;29;20050;-40
2021/04/15 03:57:56;;;;;;;5.97;3.70;;;0.40;67.60;;;1.04;55.47;98483.94;4930782;29;20058;-40
2021/04/15 04:00:51;;;;;;;8.35;4.47;;;0.40;67.70;;;1.04;54.82;98487.38;4931325;29;20052;-41
2021/04/15 04:03:24;;;;;;;6.47;3.93;;;0.30;67.60;;;1.01;55.14;98489.31;4947858;29;20048;-40
2021/04/15 04:06:20;;;;;;;10.90;5.80;;;0.30;68.30;;;0.96;55.27;98493.03;4930142;29;20064;-41
2021/04/15 04:09:01;;;;;;;5.87;4.07;;;0.30;68.20;;;0.93;55.63;98487.97;4946982;29;20350;-40
2021/04/15 04:11:34;;;;;;;6.67;3.70;;;0.20;69.60;;;0.91;55.32;98487.22;4931367;29;20054;-41
2021/04/15 04:14:08;;;;;;;7.50;3.67;;;0.20;68.40;;;0.93;55.12;98487.97;4930351;29;20059;-40
2021/04/15 04:16:49;;;;;;;;;;;0.30;68.20;;;0.90;56.01;98487.28;4931712;29;20054;-41
2021/04/15 04:19:40;;;;;;;11.50;4.60;;;0.20;68.80;;;0.90;55.35;98490.75;4931547;29;19919;-41
2021/04/15 04:22:31;;;;;;;7.47;3.70;;;0.20;68.40;;;0.87;55.45;98487.44;4933556;29;20054;-40
2021/04/15 04:25:11;;;;;;;7.57;4.40;;;0.20;68.20;;;0.85;55.38;98484.88;4947325;29;20245;-40
2021/04/15 04:27:50;;;;;;;11.07;4.83;;;0.20;69.20;;;0.84;55.13;98477.97;4946974;29;20052;-41
2021/04/15 04:30:32;;;;;;;9.63;4.90;;;0.10;68.50;;;0.83;55.51;98485.91;4949346;23;20043;31
2021/04/15 04:33:04;;;;;;;12.93;5.53;;;0.10;68.40;;;0.82;55.36;98492.09;4899861;29;20056;-41
2021/04/15 04:35:44;;;;;;;7.50;5.03;;;0.10;68.50;;;0.81;54.87;98499.06;4925445;29;20052;-40
2021/04/15 04:38:19;;;;;;;9.07;4.93;;;0.10;68.30;;;0.81;55.24;98498.25;4926804;29;20048;-41
2021/04/15 04:40:54;;;;;;;8.38;4.70;;;0.10;68.20;;;0.80;55.65;98493.94;4926839;29;20246;-41
2021/04/15 04:43:32;;;;;;;13.50;6.03;;;0.10;68.10;;;0.80;55.79;98505.25;4926975;29;20056;-41
2021/04/15 04:46:11;;;;;;;9.83;6.83;;;0.20;67.80;;;0.84;55.43;98511.19;4912301;29;20052;-41
2021/04/15 04:48:49;;;;;;;11.20;6.40;;;0.20;67.60;;;0.85;55.19;98505.84;4926549;29;20050;-41
2021/04/15 04:51:19;;;;;;;11.27;5.67;;;0.30;67.60;;;0.88;55.47;98510.94;4927905;29;20059;-41
2021/04/15 04:53:48;;;;;;;9.13;5.37;;;0.30;67.80;;;0.89;55.66;98496.94;4926774;29;20060;-41
2021/04/15 04:56:38;;;;;;;8.50;5.43;;;0.30;68.10;;;0.92;55.72;98512.47;4926778;29;20257;-40
2021/04/15 04:59:19;;;;;;;7.53;5.23;;;0.30;68.30;;;0.94;56.01;98509.78;4927491;29;20373;-41
2021/04/15 05:01:47;;;;;;;6.80;4.37;;;0.40;68.10;;;0.98;55.42;98514.78;4925087;29;20062;-40
2021/04/15 05:04:20;;;;;;;6.43;4.07;;;0.40;68.00;;;1.00;56.08;98516.50;4911203;29;20246;-41
2021/04/15 05:06:49;;;;;;;5.15;3.47;;;0.50;68.10;;;1.03;56.08;98516.31;4927367;29;20058;-40
2021/04/15 05:09:50;;;;;;;6.83;3.93;;;0.50;68.10;;;1.05;56.18;98514.47;4927549;29;20044;-40
2021/04/15 05:12:26;;;;;;;3.77;3.00;;;0.50;68.80;;;1.06;56.00;98524.88;4926584;29;20264;-41
2021/04/15 05:14:57;;;;;;;7.87;3.57;;;0.50;68.70;;;1.08;55.64;98516.94;4925678;29;20055;-40
2021/04/15 05:17:38;;;;;;;4.57;3.20;;;0.50;68.80;;;1.09;56.32;98522.09;4925854;29;20365;-41
2021/04/15 05:20:16;;;;;;;8.33;3.03;;;0.50;69.10;;;1.08;56.77;98519.56;4926443;29;20044;-41
2021/04/15 05:23:05;;;;;;;7.13;3.20;;;0.50;69.70;;;1.10;56.57;98529.03;4926387;29;20349;-40
2021/04/15 05:25:44;;;;;;;5.83;2.90;;;0.50;69.50;;;1.12;56.65;98529.78;4927233;29;20052;-40
2021/04/15 05:28:15;;;;;;;7.07;3.70;;;0.50;70.00;;;1.12;56.45;98529.78;4924942;29;20052;-40
2021/04/15 05:30:51;;;;;;;4.97;3.70;;;0.60;70.10;;;1.16;56.70;98533.97;4927161;29;20059;-40
2021/04/15 05:33:23;;;;;;;10.87;5.67;;;0.70;70.10;;;1.21;56.93;98530.25;4926132;29;20062;-40
2021/04/15 05:36:03;;;;;;;8.97;5.93;;;0.70;69.50;;;1.25;56.34;98537.88;4927005;29;20270;-41
2021/04/15 05:38:41;;;;;;;6.00;3.43;;;0.80;69.50;;;1.27;56.40;98541.25;4926598;29;20048;-41
2021/04/15 05:41:23;;;;;;;10.93;3.43;;;0.80;69.20;;;1.29;56.45;98536.78;4925956;29;20062;-41
2021/04/15 05:44:10;;;;;;;5.90;3.10;;;0.80;69.50;;;1.31;57.00;98540.16;4909584;29;20056;-40
2021/04/15 05:46:43;;;;;;;5.20;3.40;;;0.90;70.20;;;1.34;56.70;98537.41;4925938;29;20048;-41
2021/04/15 05:49:23;;;;;;;4.73;3.23;;;0.90;70.30;;;1.38;56.97;98535.47;4908938;29;20063;-40
2021/04/15 05:52:16;;;;;;;6.80;3.13;;;0.90;69.70;;;1.42;57.36;98536.16;4925305;29;20066;-39
2021/04/15 05:54:44;;;;;;;8.10;3.23;;;1.00;69.30;;;1.44;56.88;98535.13;4915632;29;20071;-39
2021/04/15 05:57:16;;;;;;;6.50;3.43;;;1.10;69.70;;;1.45;57.08;98541.22;4925172;29;20055;-39
2021/04/15 05:59:53;;;;;;;4.63;3.00;;;1.10;69.00;;;1.48;57.69;98539.28;4926575;29;20225;-40
2021/04/15 06:02:36;;;;;;;5.77;3.20;;;1.20;69.00;;;1.53;57.18;98539.00;4925887;29;20035;-41
2021/04/15 06:05:48;;;;;;;4.70;3.27;;;1.20;69.30;;;1.57;57.21;98535.28;4925046;29;20254;-40
2021/04/15 06:08:16;;;;;;;6.10;3.20;;;1.20;69.00;;;1.60;57.02;98536.94;4925666;29;20058;-39
2021/04/15 06:10:44;;;;;;;5.97;2.90;;;1.20;69.00;;;1.62;57.30;98538.53;4924739;29;20058;-40
2021/04/15 06:13:33;;;;;;;6.33;3.07;;;1.20;69.70;;;1.61;57.26;98541.22;4926149;29;20060;-40
2021/04/15 06:16:10;;;;;;;5.33;2.83;;;1.20;70.50;;;1.62;57.30;98541.16;4924533;29;20054;-40
2021/04/15 06:18:47;;;;;;;7.57;3.63;;;1.20;71.40;;;1.66;57.72;98547.09;4925236;29;20286;-40
2021/04/15 06:21:29;;;;;;;4.50;2.60;;;1.20;70.00;;;1.69;57.79;98549.56;4924144;29;20052;-39
2021/04/15 06:24:10;;;;;;;3.97;2.93;;;1.30;70.10;;;1.67;58.85;98552.25;4925097;29;20070;-40
2021/04/15 06:26:51;;;;;;;6.33;3.30;;;1.30;70.70;;;1.69;57.50;98549.56;4926256;29;20341;-40
2021/04/15 06:30:08;;;;;;;8.80;4.90;;;1.20;70.70;;;1.71;57.82;98556.41;4924963;29;20047;-39
2021/04/15 06:32:50;;;;;;;6.07;3.47;;;1.30;70.40;;;1.69;59.24;98560.06;4895290;29;20070;-40
2021/04/15 06:35:24;;;;;;;8.03;3.60;;;1.20;71.20;;;1.61;59.49;98551.72;4924281;29;20269;-40
2021/04/15 06:38:17;;;;;;;5.07;3.37;;;1.10;71.70;;;1.71;58.32;98561.66;4923443;29;20052;-40
2021/04/15 06:41:09;;;;;;;5.23;2.90;;;1.30;71.60;;;1.78;58.75;98556.91;4906633;29;20048;-40
2021/04/15 06:44:25;;;;;;;4.37;2.83;;;1.40;71.30;;;1.79;58.88;98563.03;4903884;29;20060;-40
2021/04/15 06:47:29;;;;;;;4.17;2.87;;;1.40;70.70;;;1.79;58.50;98555.16;4895260;29;20052;-41
2021/04/15 06:50:25;;;;;;;4.40;2.70;;;1.40;70.80;;;1.86;58.19;98559.97;4919085;29;20048;-41
2021/04/15 06:53:24;;;;;;;5.93;2.77;;;1.50;71.30;;;1.94;58.41;98564.81;4921632;29;20090;-40
2021/04/15 06:56:14;;;;;;;4.73;2.90;;;1.60;70.60;;;2.03;58.84;98566.06;4925282;29;20044;-40
2021/04/15 06:59:00;;;;;;;5.77;3.43;;;1.70;70.60;;;2.07;58.16;98560.56;4924252;29;20060;-40
2021/04/15 07:02:22;;;;;;;6.40;4.03;;;1.80;70.00;;;2.14;57.87;98551.41;4924908;29;20051;-41
2021/04/15 07:05:12;;;;;;;7.17;4.37;;;1.90;70.00;;;2.20;58.03;98557.25;4925735;29;20039;-41
2021/04/15 07:07:50;;;;;;;6.17;3.67;;;1.90;69.30;;;2.17;57.75;98555.63;4926223;29;20054;-41
2021/04/15 07:10:55;;;;;;;5.87;3.97;;;1.90;68.80;;;2.19;57.61;98561.69;4927914;29;20059;-41
2021/04/15 07:13:58;;;;;;;4.32;2.90;;;1.80;69.60;;;2.27;57.86;98563.84;4928411;29;20058;-40
2021/04/15 07:16:51;;;;;;;6.30;3.70;;;2.00;69.60;;;2.30;58.70;98558.41;4929222;29;20050;-40
2021/04/15 07:19:37;;;;;;;4.80;3.30;;;2.00;69.70;;;2.36;57.82;98552.81;4929363;29;20051;-39
2021/04/15 07:22:38;;;;;;;9.10;3.20;;;2.10;68.80;;;2.43;58.73;98553.31;4929393;29;20324;-39
2021/04/15 07:25:38;;;;;;;6.53;3.40;;;2.10;68.60;;;2.51;57.97;98554.56;4929687;29;20044;-39
2021/04/15 07:28:58;;;;;;;4.97;3.27;;;2.30;68.60;;;2.59;58.36;98556.75;4928283;29;20052;-40
2021/04/15 07:32:02;;;;;;;5.50;3.37;;;2.40;68.80;;;2.69;58.42;98562.31;4912406;29;20048;-41
2021/04/15 07:35:12;;;;;;;6.03;3.58;;;2.50;68.20;;;2.76;58.10;98564.50;4928873;29;20052;-40
2021/04/15 07:38:33;;;;;;;8.10;3.83;;;2.60;67.80;;;2.80;57.79;98562.53;4927474;29;20070;-40
2021/04/15 07:41:20;;;;;;;5.53;3.87;;;2.60;68.10;;;2.85;57.12;98560.50;4901058;29;20058;-40
2021/04/15 07:44:28;;;;;;;5.97;3.77;;;2.60;68.20;;;2.90;57.42;98568.94;4928795;29;20249;-40
2021/04/15 07:47:16;;;;;;;8.47;4.70;;;2.70;68.50;;;2.90;57.40;98562.84;4928633;29;20059;-40
2021/04/15 07:50:26;;;;;;;6.20;3.87;;;2.60;68.10;;;2.99;57.56;98566.72;4927837;29;20054;-40
2021/04/15 07:53:40;;;;;;;4.50;3.43;;;2.70;68.90;;;3.08;57.67;98569.66;4927794;29;20050;-40
2021/04/15 07:56:20;;;;;;;10.13;4.10;;;2.90;68.70;;;3.17;57.36;98573.50;4927908;29;20048;-40
2021/04/15 07:59:17;;;;;;;8.13;4.00;;;3.00;67.50;;;3.25;57.13;98578.31;4928240;29;20050;-40
2021/04/15 08:02:06;;;;;;;9.27;3.90;;;3.10;66.20;;;3.30;56.97;98576.25;4905343;29;20048;-40
2021/04/15 08:05:10;;;;;;;5.53;3.73;;;3.10;65.90;;;3.38;56.96;98578.44;4908184;29;20049;-40
2021/04/15 08:08:17;;;;;;;7.13;3.90;;;3.20;66.10;;;3.43;57.03;98582.47;4912240;29;20055;-40
2021/04/15 08:11:35;;;;;;;6.33;3.53;;;3.30;66.50;;;3.52;56.71;98583.69;4907208;29;20056;-40
2021/04/15 08:14:46;;;;;;;6.40;4.40;;;3.40;65.80;;;3.60;56.32;98580.59;4904493;29;20057;-40
2021/04/15 08:17:37;;;;;;;7.17;4.17;;;3.50;65.00;;;3.65;56.06;98584.63;4904225;29;20040;-40
2021/04/15 08:20:46;;;;;;;7.17;3.90;;;3.50;64.60;;;3.70;55.89;98587.84;4907281;29;20338;-41
2021/04/15 08:23:58;;;;;;;7.63;3.77;;;3.50;65.00;;;3.80;56.30;98585.47;4883050;29;20134;-41
2021/04/15 08:27:02;;;;;;;9.00;4.27;;;3.70;64.60;;;3.87;56.12;98584.13;4895299;29;20066;-41
2021/04/15 08:30:20;;;;;;;5.10;3.78;;;3.80;64.40;;;3.97;55.91;98584.41;4909237;29;20058;-41
2021/04/15 08:33:33;;;;;;;7.30;4.50;;;3.90;64.00;;;4.05;55.94;98583.91;4901959;29;20059;-40
2021/04/15 08:36:41;;;;;;;8.40;4.07;;;4.00;64.00;;;4.14;55.23;98592.09;4908559;29;20048;-40
2021/04/15 08:39:33;;;;;;;7.60;4.27;;;4.10;63.60;;;4.19;55.14;98577.75;4906310;29;20061;-40
2021/04/15 08:42:22;;;;;;;6.77;4.03;;;4.20;62.70;;;4.21;54.84;98582.00;4908510;29;20075;-40
2021/04/15 08:45:26;;;;;;;7.43;3.80;;;4.10;62.90;;;4.20;55.12;98577.66;4908381;29;20061;-40
2021/04/15 08:48:17;;;;;;;10.20;5.07;;;4.10;62.20;;;4.24;54.50;98581.78;4907228;29;20054;-41
2021/04/15 08:51:13;;;;;;;7.40;3.73;;;4.20;62.20;;;4.35;54.94;98578.47;4907198;29;20051;-41
2021/04/15 08:54:16;;;;;;;8.00;4.13;;;4.30;62.20;;;4.34;54.04;98580.28;4906615;29;20060;-41
2021/04/15 08:56:58;;;;;;;7.63;4.03;;;4.40;60.70;;;4.37;53.37;98576.59;4907428;29;20041;-41
2021/04/15 08:59:56;;;;;;;7.30;4.33;;;4.40;60.70;;;4.43;53.52;98578.81;4907662;29;20046;-41
2021/04/15 09:02:51;;;;;;;7.67;3.53;;;4.40;60.70;;;4.50;53.84;98574.84;4907574;29;20353;-41
2021/04/15 09:05:36;;;;;;;7.73;5.27;;;4.50;60.50;;;4.57;53.53;98582.34;4908384;29;20063;-41
2021/04/15 09:08:20;;;;;;;7.13;4.27;;;4.60;60.10;;;4.64;53.06;98575.75;4907211;29;20054;-41
2021/04/15 09:11:18;;;;;;;4.82;3.30;;;4.60;60.60;;;4.73;52.76;98581.25;4907397;29;20066;-40
2021/04/15 09:14:31;;;;;;;7.00;4.00;;;4.80;58.00;;;4.84;50.93;98575.25;4907627;29;20053;-41
2021/04/15 09:17:12;;;;;;;7.73;4.13;;;4.90;58.60;;;4.91;52.67;98573.06;4907035;29;20242;-41
2021/04/15 09:20:12;;;;;;;6.87;4.87;;;5.00;58.70;;;4.96;52.08;98570.94;4907384;29;20270;-41
2021/04/15 09:23:14;;;;;;;7.17;4.50;;;5.00;58.30;;;5.03;52.31;98569.59;4908182;29;20241;-40
2021/04/15 09:26:02;;;;;;;5.63;4.07;;;5.00;58.30;;;5.10;51.95;98567.38;4906447;29;20376;-41
2021/04/15 09:29:12;;;;;;;7.07;3.80;;;5.10;57.90;;;5.10;50.40;98570.88;4908003;29;20044;-41
2021/04/15 09:32:02;;;;;;;8.13;4.23;;;5.10;57.50;;;5.16;49.77;98563.47;4907704;29;20045;-41
2021/04/15 09:34:56;;;;;;;7.87;3.77;;;5.20;56.90;;;5.28;51.64;98560.84;4907156;29;20048;-41
2021/04/15 09:37:51;;;;;;;5.63;3.60;;;5.40;57.40;;;5.43;51.45;98555.44;4907495;29;20052;-41
2021/04/15 09:40:30;;;;;;;9.33;4.03;;;5.50;58.20;;;5.50;51.76;98552.25;4907874;29;20067;-43
2021/04/15 09:43:25;;;;;;;8.70;4.00;;;5.70;57.70;;;5.61;50.63;98556.81;4907659;29;20063;-41
2021/04/15 09:46:22;;;;;;;5.10;3.20;;;5.90;56.70;;;5.62;48.64;98557.66;4906461;29;20055;-41
2021/04/15 09:49:16;;;;;;;8.80;3.50;;;5.90;54.00;;;5.66;49.39;98552.06;4906697;29;20342;-41
2021/04/15 09:52:16;;;;;;;4.47;3.50;;;5.90;55.00;;;5.59;47.94;98556.06;4902795;29;20054;-40
2021/04/15 09:55:04;;;;;;;5.80;3.13;;;5.70;53.60;;;5.54;47.57;98544.97;4906175;29;20037;-41
2021/04/15 09:58:04;;;;;;;5.57;3.10;;;5.60;53.60;;;5.63;47.37;98551.41;4876352;29;20250;-41
2021/04/15 10:00:37;;;;;;;6.37;2.87;;;5.80;51.90;;;5.70;47.03;98553.53;4905675;29;20053;-40
2021/04/15 10:03:26;;;;;;;4.00;2.37;;;5.90;49.80;;;5.79;46.90;98556.47;4906962;29;20063;-41
2021/04/15 10:06:18;;;;;;;4.07;2.83;;;5.90;50.10;;;5.86;47.22;98549.78;4905244;29;20058;-41
2021/04/15 10:08:55;;;;;;;5.17;3.10;;;6.10;50.60;;;6.01;47.08;98543.44;4905549;29;20052;-41
2021/04/15 10:12:26;;;;;;;6.53;2.60;;;6.20;48.80;;;6.10;47.24;98541.91;4905760;29;20056;-41
2021/04/15 10:14:59;;;;;;;4.77;2.90;;;6.30;49.70;;;6.14;46.55;98542.53;4887995;29;20134;-41
2021/04/15 10:17:39;;;;;;;5.50;3.37;;;6.30;50.20;;;6.24;47.28;98540.91;4905674;29;20246;-41
2021/04/15 10:20:58;;;;;;;5.73;3.17;;;6.40;52.50;;;6.36;46.32;98540.03;4905123;29;20049;-40
2021/04/15 10:24:12;;;;;;;5.37;3.10;;;6.50;49.80;;;6.38;46.86;98537.25;4905073;29;20162;-41
2021/04/15 10:27:15;;;;;;;4.60;4.10;;;6.50;50.40;;;6.36;45.12;98528.59;4889865;29;20358;-41
2021/04/15 10:30:16;;;;;;;6.00;3.40;;;6.40;52.30;;;6.42;46.61;98533.44;4906028;29;20561;-41
2021/04/15 10:33:18;;;;;;;8.07;3.40;;;6.50;51.40;;;6.41;45.06;98531.75;4907091;29;20048;-41
2021/04/15 10:36:30;;;;;;;5.03;3.13;;;6.50;50.00;;;6.44;44.35;98527.09;4905234;29;20292;-41
2021/04/15 10:39:31;;;;;;;5.13;3.03;;;6.60;50.00;;;6.56;45.81;98520.03;4906446;29;20059;-41
2021/04/15 10:42:38;;;;;;;7.73;3.87;;;6.70;49.20;;;6.67;47.07;98517.44;4906792;29;20074;-40
2021/04/15 10:45:47;;;;;;;5.70;3.47;;;6.90;51.10;;;6.81;47.11;98516.38;4906807;29;20071;-41
2021/04/15 10:48:44;;;;;;;5.90;3.37;;;7.00;51.20;;;6.90;46.17;98507.75;4905144;29;20075;-41
2021/04/15 10:51:29;;;;;;;5.90;3.50;;;7.10;52.40;;;6.98;44.82;98511.59;4904465;29;20224;-40
2021/04/15 10:54:07;;;;;;;4.07;3.20;;;7.20;49.90;;;7.06;46.31;98520.66;4905906;29;20052;-41
2021/04/15 10:56:45;;;;;;;6.87;3.13;;;7.30;51.40;;;7.10;45.39;98511.50;4905737;29;20261;-41
2021/04/15 10:59:35;;;;;;;5.67;2.77;;;7.30;50.00;;;7.16;45.87;98512.00;4905555;29;20059;-41
2021/04/15 11:02:31;;;;;;;5.33;3.57;;;7.40;49.00;;;7.23;44.35;98502.59;4905635;29;20048;-41
2021/04/15 11:05:21;;;;;;;6.00;3.37;;;7.50;48.80;;;7.28;44.63;98503.94;4906794;29;20230;-41
2021/04/15 11:07:51;;;;;;;5.63;3.70;;;7.50;48.80;;;7.35;44.65;98501.66;4906302;29;20052;-41
2021/04/15 11:10:31;;;;;;;6.43;3.13;;;7.60;50.00;;;7.38;43.81;98496.13;4905628;29;20370;-41
2021/04/15 11:13:23;;;;;;;6.60;3.57;;;7.60;47.10;;;7.36;44.05;98499.84;4906196;29;20242;-41
2021/04/15 11:15:59;;;;;;;5.43;3.80;;;7.60;48.50;;;7.37;43.79;98499.75;4906682;29;20052;-41
2021/04/15 11:18:35;;;;;;;7.57;4.27;;;7.70;49.20;;;7.39;45.09;98507.56;4905543;29;20059;-41
2021/04/15 11:21:24;;;;;;;5.53;3.53;;;7.60;51.10;;;7.42;45.56;98507.31;4905616;29;20055;-41
2021/04/15 11:23:55;;;;;;;4.90;3.57;;;7.70;50.50;;;7.44;45.74;98503.59;4906480;29;20068;-41
2021/04/15 11:26:46;;;;;;;6.47;5.03;;;7.80;51.00;;;7.53;46.26;98498.53;4906454;29;20055;-41
2021/04/15 11:29:44;;;;;;;4.53;3.37;;;7.80;51.80;;;7.62;46.78;98511.06;4906429;29;20049;-40
2021/04/15 11:32:41;;;;;;;8.03;3.83;;;7.90;50.00;;;7.71;45.60;98504.19;4905423;29;20050;-41
2021/04/15 11:35:21;;;;;;;4.17;2.53;;;8.00;48.70;;;7.75;45.71;98508.28;4906214;29;20063;-41
2021/04/15 11:38:04;;;;;;;4.40;2.63;;;8.00;50.40;;;7.75;45.06;98498.50;4905946;29;20040;-41
2021/04/15 11:40:46;;;;;;;5.20;2.57;;;7.90;50.00;;;7.76;43.29;98497.56;4905597;29;20049;-41
2021/04/15 11:43:25;;;;;;;4.83;3.33;;;7.90;48.80;;;7.76;44.28;98497.56;4906346;29;20053;-42
2021/04/15 11:46:10;;;;;;;6.00;3.77;;;7.90;49.50;;;7.83;44.83;98481.97;4906450;29;20332;-41
2021/04/15 11:48:38;;;;;;;5.63;3.78;;;7.90;49.90;;;7.84;44.63;98483.69;4904748;29;20384;-43
2021/04/15 11:51:20;;;;;;;4.40;2.97;;;8.00;49.60;;;7.88;44.43;98483.31;4905710;29;20053;-44
2021/04/15 11:53:53;;;;;;;5.73;3.43;;;8.00;47.90;;;7.86;44.30;98481.75;4907793;29;20062;-44
2021/04/15 11:56:24;;;;;;;6.13;4.57;;;8.00;48.90;;;7.91;44.98;98476.94;4909764;29;20067;-44
2021/04/15 11:58:53;;;;;;;7.90;4.67;;;8.10;49.40;;;8.00;44.89;98485.94;4908130;29;20052;-43